createdAt,value
2022-09-28T00:01:06.634Z,94087.75
2022-09-28T00:03:34.286Z,94079.25
2022-09-28T00:06:04.313Z,94078.81
2022-09-28T00:08:32.368Z,94074.84
2022-09-28T00:11:00.630Z,94066.94
2022-09-28T00:13:29.396Z,94065.22
2022-09-28T00:16:04.151Z,94064.56
2022-09-28T00:18:32.217Z,94068.91
2022-09-28T00:21:06.002Z,94065.88
2022-09-28T00:23:34.169Z,94061.28
2022-09-28T00:26:05.642Z,94045.41
2022-09-28T00:28:33.261Z,94030.25
2022-09-28T00:31:02.928Z,94035.44
2022-09-28T00:33:30.554Z,94035.75
2022-09-28T00:35:59.274Z,94033.03
2022-09-28T00:38:28.394Z,94033.97
2022-09-28T00:40:56.696Z,94024.16
2022-09-28T00:43:25.304Z,94017.00
2022-09-28T00:46:00.349Z,94016.09
2022-09-28T00:48:33.439Z,94017.53
2022-09-28T00:51:09.977Z,94007.78
2022-09-28T00:53:40.563Z,94008.66
2022-09-28T00:56:12.529Z,94005.44
2022-09-28T00:58:44.320Z,93999.50
2022-09-28T01:01:13.297Z,93997.47
2022-09-28T01:03:45.390Z,93993.28
2022-09-28T01:06:19.256Z,93988.22
2022-09-28T01:08:50.576Z,93986.25
2022-09-28T01:11:19.578Z,93981.97
2022-09-28T01:13:49.437Z,93975.94
2022-09-28T01:16:27.621Z,93970.06
2022-09-28T01:19:05.708Z,93966.47
2022-09-28T01:21:46.892Z,93951.75
2022-09-28T01:24:33.616Z,93952.28
2022-09-28T01:27:10.674Z,93943.75
2022-09-28T01:29:46.986Z,93925.91
2022-09-28T01:32:23.437Z,93930.59
2022-09-28T01:34:58.740Z,93920.53
2022-09-28T01:37:35.166Z,93918.47
2022-09-28T01:40:04.954Z,93913.69
2022-09-28T01:42:38.200Z,93900.63
2022-09-28T01:45:11.675Z,93905.38
2022-09-28T01:47:42.010Z,93891.34
2022-09-28T01:50:15.273Z,93881.75
2022-09-28T01:52:50.642Z,93880.03
2022-09-28T01:55:24.429Z,93876.34
2022-09-28T01:57:58.668Z,93872.97
2022-09-28T02:00:28.218Z,93873.03
2022-09-28T02:03:02.858Z,93881.00
2022-09-28T02:05:49.669Z,93852.06
2022-09-28T02:08:25.386Z,93850.72
2022-09-28T02:10:59.135Z,93850.13
2022-09-28T02:13:34.231Z,93854.78
2022-09-28T02:16:07.895Z,93835.34
2022-09-28T02:18:36.071Z,93827.38
2022-09-28T02:21:11.023Z,93821.81
2022-09-28T02:23:44.296Z,93817.50
2022-09-28T02:26:18.044Z,93815.28
2022-09-28T02:28:47.166Z,93817.44
2022-09-28T02:31:15.546Z,93811.06
2022-09-28T02:33:45.144Z,93812.84
2022-09-28T02:36:13.562Z,93805.44
2022-09-28T02:38:41.194Z,93802.84
2022-09-28T02:41:17.587Z,93807.09
2022-09-28T02:43:56.895Z,93808.81
2022-09-28T02:46:33.870Z,93807.91
2022-09-28T02:49:22.676Z,93814.28
2022-09-28T02:52:15.065Z,93807.72
2022-09-28T02:55:05.321Z,93818.94
2022-09-28T02:57:48.428Z,93814.69
2022-09-28T03:00:21.256Z,93813.47
2022-09-28T03:03:00.138Z,93811.03
2022-09-28T03:05:36.394Z,93811.16
2022-09-28T03:08:08.228Z,93811.41
2022-09-28T03:10:43.181Z,93802.72
2022-09-28T03:13:12.133Z,93796.66
2022-09-28T03:15:46.415Z,93792.31
2022-09-28T03:18:16.213Z,93786.91
2022-09-28T03:20:44.224Z,93791.16
2022-09-28T03:23:24.259Z,93784.28
2022-09-28T03:25:53.054Z,93790.34
2022-09-28T03:28:21.245Z,93783.97
2022-09-28T03:30:51.423Z,93779.13
2022-09-28T03:33:19.728Z,93781.66
2022-09-28T03:35:48.187Z,93778.91
2022-09-28T03:38:16.927Z,93779.22
2022-09-28T03:40:45.516Z,93773.75
2022-09-28T03:43:13.186Z,93759.41
2022-09-28T03:45:41.776Z,93758.94
2022-09-28T03:48:10.805Z,93753.19
2022-09-28T03:50:38.768Z,93743.75
2022-09-28T03:53:06.349Z,93742.38
2022-09-28T03:55:34.437Z,93732.28
2022-09-28T03:58:02.438Z,93728.75
2022-09-28T04:00:30.597Z,93739.28
2022-09-28T04:02:58.875Z,93732.84
2022-09-28T04:05:27.995Z,93726.31
2022-09-28T04:07:58.000Z,93725.63
2022-09-28T04:10:26.383Z,93728.06
2022-09-28T04:12:55.853Z,93723.88
2022-09-28T04:15:23.933Z,93723.63
2022-09-28T04:17:52.130Z,93721.28
2022-09-28T04:20:48.561Z,93729.06
2022-09-28T04:23:16.231Z,93731.63
2022-09-28T04:25:48.093Z,93722.72
2022-09-28T04:28:34.153Z,93724.03
2022-09-28T04:31:02.319Z,93722.56
2022-09-28T04:33:30.087Z,93710.06
2022-09-28T04:36:01.074Z,93710.88
2022-09-28T04:38:48.822Z,93701.41
2022-09-28T04:41:17.203Z,93693.50
2022-09-28T04:43:47.829Z,93687.53
2022-09-28T04:46:17.715Z,93680.66
2022-09-28T04:49:11.396Z,93681.94
2022-09-28T04:51:54.457Z,93683.97
2022-09-28T04:54:22.040Z,93674.31
2022-09-28T04:56:52.965Z,93672.03
2022-09-28T04:59:20.597Z,93670.22
2022-09-28T05:01:49.423Z,93668.72
2022-09-28T05:04:35.547Z,93661.94
2022-09-28T05:07:18.287Z,93673.19
2022-09-28T05:09:45.875Z,93674.78
2022-09-28T05:12:15.867Z,93669.63
2022-09-28T05:14:43.471Z,93671.09
2022-09-28T05:17:11.831Z,93671.09
2022-09-28T05:20:09.892Z,93673.19
2022-09-28T05:22:39.169Z,93679.56
2022-09-28T05:25:09.721Z,93670.53
2022-09-28T05:27:49.301Z,93653.44
2022-09-28T05:30:35.974Z,93662.72
2022-09-28T05:33:22.377Z,93662.16
2022-09-28T05:36:01.047Z,93651.13
2022-09-28T05:38:31.961Z,93661.31
2022-09-28T05:41:03.221Z,93667.97
2022-09-28T05:43:33.953Z,93669.50
2022-09-28T05:46:04.902Z,93670.94
2022-09-28T05:48:34.453Z,93671.78
2022-09-28T05:51:03.765Z,93670.19
2022-09-28T05:53:32.805Z,93665.34
2022-09-28T05:56:00.717Z,93658.47
2022-09-28T05:58:31.579Z,93662.72
2022-09-28T06:01:00.451Z,93660.06
2022-09-28T06:03:29.003Z,93656.97
2022-09-28T06:05:56.730Z,93654.69
2022-09-28T06:08:25.516Z,93641.81
2022-09-28T06:11:06.299Z,93638.25
2022-09-28T06:13:35.334Z,93646.25
2022-09-28T06:16:04.745Z,93631.94
2022-09-28T06:18:33.158Z,93651.31
2022-09-28T06:21:19.528Z,93637.69
2022-09-28T06:23:49.329Z,93650.88
2022-09-28T06:26:19.866Z,93649.28
2022-09-28T06:28:48.455Z,93640.50
2022-09-28T06:31:17.195Z,93653.22
2022-09-28T06:33:49.888Z,93648.56
2022-09-28T06:36:19.236Z,93652.66
2022-09-28T06:38:47.673Z,93660.47
2022-09-28T06:41:18.338Z,93667.34
2022-09-28T06:43:48.621Z,93664.63
2022-09-28T06:46:35.648Z,93666.03
2022-09-28T06:49:30.911Z,93669.72
2022-09-28T06:52:11.912Z,93677.06
2022-09-28T06:54:58.974Z,93666.03
2022-09-28T06:57:38.029Z,93671.91
2022-09-28T07:00:08.503Z,93679.09
2022-09-28T07:02:37.191Z,93691.84
2022-09-28T07:05:28.714Z,93689.91
2022-09-28T07:08:20.523Z,93685.75
2022-09-28T07:11:06.498Z,93680.25
2022-09-28T07:13:50.833Z,93687.56
2022-09-28T07:16:27.301Z,93681.03
2022-09-28T07:18:58.340Z,93675.97
2022-09-28T07:21:30.207Z,93680.47
2022-09-28T07:24:02.676Z,93678.19
2022-09-28T07:26:49.141Z,93682.06
2022-09-28T07:29:34.407Z,93682.78
2022-09-28T07:32:23.749Z,93695.75
2022-09-28T07:35:16.284Z,93695.38
2022-09-28T07:37:50.010Z,93691.94
2022-09-28T07:40:48.632Z,93700.78
2022-09-28T07:43:20.935Z,93699.56
2022-09-28T07:45:52.868Z,93704.84
2022-09-28T07:48:23.448Z,93724.09
2022-09-28T07:51:11.494Z,93726.25
2022-09-28T07:53:48.000Z,93716.66
2022-09-28T07:56:30.950Z,93719.97
2022-09-28T07:59:08.283Z,93730.25
2022-09-28T08:02:09.791Z,93750.69
2022-09-28T08:04:40.535Z,93763.53
2022-09-28T08:07:10.297Z,93775.69
2022-09-28T08:09:38.378Z,93795.63
2022-09-28T08:12:25.957Z,93809.81
2022-09-28T08:15:15.958Z,93806.41
2022-09-28T08:17:47.705Z,93818.75
2022-09-28T08:20:35.094Z,93816.38
2022-09-28T08:23:06.206Z,93808.56
2022-09-28T08:25:36.632Z,93817.78
2022-09-28T08:28:07.438Z,93817.41
2022-09-28T08:30:41.326Z,93822.25
2022-09-28T08:33:29.096Z,93837.38
2022-09-28T08:36:16.474Z,93829.59
2022-09-28T08:39:10.805Z,93841.00
2022-09-28T08:42:32.150Z,93842.63
2022-09-28T08:45:26.947Z,93840.44
2022-09-28T08:48:48.167Z,93833.41
2022-09-28T08:51:59.961Z,93842.59
2022-09-28T08:54:41.706Z,93838.28
2022-09-28T08:57:21.726Z,93840.25
2022-09-28T08:59:52.467Z,93832.97
2022-09-28T09:02:33.271Z,93837.66
2022-09-28T09:05:19.565Z,93836.44
2022-09-28T09:08:22.476Z,93851.22
2022-09-28T09:10:53.706Z,93844.13
2022-09-28T09:14:01.233Z,93847.34
2022-09-28T09:16:38.708Z,93843.31
2022-09-28T09:19:36.602Z,93850.53
2022-09-28T09:22:41.693Z,93855.97
2022-09-28T09:25:24.473Z,93857.44
2022-09-28T09:28:10.850Z,93870.81
2022-09-28T09:30:49.824Z,93869.97
2022-09-28T09:33:42.339Z,93882.56
2022-09-28T09:36:49.467Z,93883.56
2022-09-28T09:39:42.383Z,93875.72
2022-09-28T09:42:52.498Z,93884.84
2022-09-28T09:45:54.215Z,93892.66
2022-09-28T09:48:51.674Z,93891.81
2022-09-28T09:51:26.457Z,93889.25
2022-09-28T09:53:59.672Z,93896.91
2022-09-28T09:56:35.721Z,93898.66
2022-09-28T09:59:15.988Z,93892.66
2022-09-28T10:02:03.933Z,93894.28
2022-09-28T10:04:56.015Z,93887.63
2022-09-28T10:07:42.587Z,93889.72
2022-09-28T10:10:14.427Z,93895.34
2022-09-28T10:12:49.789Z,93901.63
2022-09-28T10:15:25.231Z,93907.84
2022-09-28T10:18:15.673Z,93904.75
2022-09-28T10:20:46.955Z,93901.41
2022-09-28T10:23:41.765Z,93899.22
2022-09-28T10:26:16.098Z,93898.25
2022-09-28T10:28:49.057Z,93910.91
2022-09-28T10:31:43.082Z,93911.75
2022-09-28T10:34:33.328Z,93907.78
2022-09-28T10:37:11.563Z,93906.19
2022-09-28T10:40:06.562Z,93899.53
2022-09-28T10:42:36.366Z,93898.13
2022-09-28T10:45:21.901Z,93891.88
2022-09-28T10:47:51.626Z,93895.38
2022-09-28T10:50:22.281Z,93906.78
2022-09-28T10:52:53.492Z,93905.06
2022-09-28T10:55:42.013Z,93915.22
2022-09-28T10:58:26.285Z,93913.78
2022-09-28T11:01:02.250Z,93913.38
2022-09-28T11:03:32.257Z,93917.66
2022-09-28T11:06:08.925Z,93921.78
2022-09-28T11:08:44.620Z,93927.91
2022-09-28T11:11:20.242Z,93922.06
2022-09-28T11:13:55.561Z,93922.41
2022-09-28T11:16:30.035Z,93919.78
2022-09-28T11:19:05.265Z,93924.66
2022-09-28T11:21:43.388Z,93913.53
2022-09-28T11:24:21.482Z,93911.72
2022-09-28T11:26:54.023Z,93921.59
2022-09-28T11:29:27.835Z,93934.38
2022-09-28T11:32:16.195Z,93930.59
2022-09-28T11:35:04.585Z,93924.78
2022-09-28T11:37:51.428Z,93942.91
2022-09-28T11:40:40.766Z,93942.91
2022-09-28T11:43:20.775Z,93938.50
2022-09-28T11:45:56.223Z,93931.75
2022-09-28T11:48:28.373Z,93937.19
2022-09-28T11:51:03.996Z,93947.19
2022-09-28T11:53:37.531Z,93952.69
2022-09-28T11:56:16.301Z,93948.22
2022-09-28T11:58:47.434Z,93932.75
2022-09-28T12:01:27.312Z,93946.38
2022-09-28T12:04:20.797Z,93942.47
2022-09-28T12:06:56.942Z,93935.84
2022-09-28T12:09:33.854Z,93950.50
2022-09-28T12:12:21.394Z,93954.06
2022-09-28T12:14:54.053Z,93969.09
2022-09-28T12:17:28.029Z,93962.66
2022-09-28T12:20:02.547Z,93958.19
2022-09-28T12:22:36.086Z,93961.63
2022-09-28T12:25:07.663Z,93959.59
2022-09-28T12:27:42.459Z,93956.88
2022-09-28T12:30:15.909Z,93956.06
2022-09-28T12:32:48.199Z,93953.56
2022-09-28T12:35:26.369Z,93961.50
2022-09-28T12:38:10.068Z,93972.47
2022-09-28T12:40:42.565Z,93972.91
2022-09-28T12:43:34.048Z,93972.78
2022-09-28T12:46:22.494Z,93971.97
2022-09-28T12:52:29.559Z,93966.69
2022-09-28T12:55:25.625Z,93957.91
2022-09-28T12:57:59.853Z,93961.28
2022-09-28T13:00:37.933Z,93951.84
2022-09-28T13:03:21.945Z,93951.91
2022-09-28T13:06:25.423Z,93947.88
2022-09-28T13:09:13.992Z,93947.34
2022-09-28T13:11:54.784Z,93935.59
2022-09-28T13:14:54.997Z,93934.94
2022-09-28T13:17:40.231Z,93942.53
2022-09-28T13:20:21.824Z,93952.03
2022-09-28T13:22:57.020Z,93960.19
2022-09-28T13:25:28.243Z,93967.63
2022-09-28T13:28:02.951Z,93973.81
2022-09-28T13:30:31.965Z,93969.06
2022-09-28T13:33:02.648Z,93971.03
2022-09-28T13:35:31.319Z,93968.13
2022-09-28T13:38:32.617Z,93967.25
2022-09-28T13:41:16.926Z,93958.97
2022-09-28T13:44:05.433Z,93960.00
2022-09-28T13:46:43.057Z,93968.13
2022-09-28T13:49:17.144Z,93957.50
2022-09-28T13:51:58.144Z,93962.78
2022-09-28T13:54:41.367Z,93953.03
2022-09-28T13:57:19.980Z,93954.88
2022-09-28T13:59:59.059Z,93951.34
2022-09-28T14:02:34.981Z,93943.66
2022-09-28T14:05:05.023Z,93953.69
2022-09-28T14:07:59.815Z,93954.38
2022-09-28T14:10:52.389Z,93965.03
2022-09-28T14:13:56.598Z,93965.97
2022-09-28T14:16:28.794Z,93964.66
2022-09-28T14:19:00.531Z,93961.50
2022-09-28T14:21:52.719Z,93962.50
2022-09-28T14:24:31.226Z,93965.56
2022-09-28T14:27:42.141Z,93969.34
2022-09-28T14:30:23.255Z,93963.41
2022-09-28T14:32:56.315Z,93959.09
2022-09-28T14:35:32.655Z,93960.09
2022-09-28T14:38:22.777Z,93963.09
2022-09-28T14:41:11.481Z,93964.84
2022-09-28T14:43:59.463Z,93959.81
2022-09-28T14:46:33.085Z,93960.25
2022-09-28T14:49:04.799Z,93962.59
2022-09-28T14:52:07.552Z,93961.63
2022-09-28T14:54:50.477Z,93956.59
2022-09-28T14:57:21.716Z,93961.50
2022-09-28T14:59:49.761Z,93964.53
2022-09-28T15:02:25.246Z,93958.31
2022-09-28T15:04:59.821Z,93957.53
2022-09-28T15:07:33.202Z,93960.22
2022-09-28T15:10:02.071Z,93964.31
2022-09-28T15:12:31.710Z,93956.72
2022-09-28T15:15:02.376Z,93963.88
2022-09-28T15:17:38.546Z,93960.13
2022-09-28T15:20:25.083Z,93966.78
2022-09-28T15:22:57.462Z,93966.50
2022-09-28T15:25:27.782Z,93971.84
2022-09-28T15:27:57.042Z,93964.66
2022-09-28T15:30:31.644Z,93971.19
2022-09-28T15:33:15.681Z,93974.84
2022-09-28T15:35:48.918Z,93976.75
2022-09-28T15:38:18.270Z,93978.91
2022-09-28T15:40:47.984Z,93986.69
2022-09-28T15:43:26.857Z,93986.22
2022-09-28T15:46:05.743Z,93994.28
2022-09-28T15:48:41.662Z,94005.38
2022-09-28T15:51:12.023Z,93997.63
2022-09-28T15:53:44.759Z,93997.03
2022-09-28T15:56:12.986Z,93990.34
2022-09-28T15:58:40.761Z,93988.06
2022-09-28T16:01:36.478Z,93986.41
2022-09-28T16:04:40.425Z,93969.00
2022-09-28T16:07:29.495Z,93961.09
2022-09-28T16:10:03.100Z,93972.06
2022-09-28T16:12:42.048Z,93970.16
2022-09-28T16:15:20.284Z,93974.53
2022-09-28T16:17:53.142Z,93985.09
2022-09-28T16:20:29.579Z,93980.16
2022-09-28T16:23:05.581Z,93980.97
2022-09-28T16:25:37.570Z,93976.88
2022-09-28T16:28:06.905Z,93982.94
2022-09-28T16:30:35.655Z,93991.06
2022-09-28T16:33:06.613Z,93983.75
2022-09-28T16:35:51.225Z,93983.31
2022-09-28T16:38:21.079Z,93991.22
2022-09-28T16:40:51.577Z,93984.19
2022-09-28T16:43:26.514Z,93975.63
2022-09-28T16:45:57.479Z,93974.59
2022-09-28T16:48:27.839Z,93977.88
2022-09-28T16:50:55.870Z,93995.19
2022-09-28T16:53:43.081Z,93990.34
2022-09-28T16:56:11.981Z,93987.84
2022-09-28T16:58:39.739Z,93988.56
2022-09-28T17:01:08.666Z,93996.72
2022-09-28T17:03:36.504Z,93991.88
2022-09-28T17:06:06.590Z,93993.69
2022-09-28T17:08:36.046Z,93997.34
2022-09-28T17:11:24.290Z,93991.50
2022-09-28T17:13:58.760Z,93987.84
2022-09-28T17:17:03.807Z,93990.34
2022-09-28T17:19:20.957Z,93983.09
2022-09-28T17:21:49.844Z,93991.81
2022-09-28T17:24:19.252Z,93992.84
2022-09-28T17:26:48.996Z,93992.72
2022-09-28T17:29:16.982Z,93992.72
2022-09-28T17:31:46.603Z,93995.91
2022-09-28T17:34:16.498Z,93997.09
2022-09-28T17:36:45.157Z,94001.03
2022-09-28T17:39:14.193Z,93999.88
2022-09-28T17:41:43.175Z,93999.06
2022-09-28T17:44:11.091Z,94002.84
2022-09-28T17:46:41.234Z,94005.53
2022-09-28T17:49:12.529Z,94005.94
2022-09-28T17:51:40.318Z,94012.63
2022-09-28T17:54:08.643Z,94015.28
2022-09-28T17:56:38.009Z,94017.28
2022-09-28T17:59:11.019Z,94020.19
2022-09-28T18:01:40.299Z,94028.16
2022-09-28T18:04:13.206Z,94040.38
2022-09-28T18:06:47.315Z,94034.00
2022-09-28T18:09:16.286Z,94036.25
2022-09-28T18:11:46.024Z,94032.94
2022-09-28T18:14:15.016Z,94031.31
2022-09-28T18:16:43.128Z,94035.03
2022-09-28T18:19:10.793Z,94037.03
2022-09-28T18:21:38.450Z,94042.44
2022-09-28T18:24:06.357Z,94047.00
2022-09-28T18:26:34.315Z,94051.53
2022-09-28T18:29:01.974Z,94054.31
2022-09-28T18:31:31.396Z,94057.69
2022-09-28T18:34:01.020Z,94052.69
2022-09-28T18:36:30.020Z,94057.09
2022-09-28T18:38:58.607Z,94060.16
2022-09-28T18:41:26.555Z,94062.19
2022-09-28T18:44:00.349Z,94064.94
2022-09-28T18:46:28.853Z,94073.94
2022-09-28T18:48:58.111Z,94069.25
2022-09-28T18:51:26.725Z,94071.25
2022-09-28T18:53:54.332Z,94075.25
2022-09-28T18:56:22.606Z,94077.91
2022-09-28T18:58:51.554Z,94073.66
2022-09-28T19:01:30.496Z,94075.25
2022-09-28T19:04:01.675Z,94076.44
2022-09-28T19:06:30.100Z,94087.84
2022-09-28T19:08:57.882Z,94092.69
2022-09-28T19:11:26.805Z,94085.84
2022-09-28T19:13:55.274Z,94093.53
2022-09-28T19:16:25.406Z,94089.69
2022-09-28T19:18:53.637Z,94097.38
2022-09-28T19:21:23.067Z,94090.28
2022-09-28T19:23:53.492Z,94094.75
2022-09-28T19:26:23.409Z,94091.56
2022-09-28T19:28:51.523Z,94094.41
2022-09-28T19:31:19.611Z,94100.25
2022-09-28T19:33:48.107Z,94108.84
2022-09-28T19:36:18.339Z,94119.19
2022-09-28T19:38:47.541Z,94125.00
2022-09-28T19:41:39.558Z,94132.47
2022-09-28T19:44:13.034Z,94132.50
2022-09-28T19:46:41.448Z,94121.03
2022-09-28T19:49:11.271Z,94115.72
2022-09-28T19:51:51.527Z,94118.72
2022-09-28T19:54:36.172Z,94127.56
2022-09-28T19:57:08.128Z,94128.56
2022-09-28T19:59:36.547Z,94119.38
2022-09-28T20:02:04.571Z,94134.25
2022-09-28T20:04:32.286Z,94131.69
2022-09-28T20:07:00.211Z,94131.13
2022-09-28T20:09:29.286Z,94138.16
2022-09-28T20:11:57.182Z,94135.94
2022-09-28T20:14:26.280Z,94145.03
2022-09-28T20:16:58.398Z,94150.88
2022-09-28T20:19:26.184Z,94157.69
2022-09-28T20:21:54.777Z,94159.53
2022-09-28T20:24:22.445Z,94160.81
2022-09-28T20:26:51.486Z,94139.94
2022-09-28T20:29:19.241Z,94141.78
2022-09-28T20:31:46.965Z,94148.66
2022-09-28T20:34:14.663Z,94148.28
2022-09-28T20:36:42.397Z,94159.69
2022-09-28T20:39:11.179Z,94150.91
2022-09-28T20:41:39.221Z,94158.81
2022-09-28T20:44:08.370Z,94156.09
2022-09-28T20:46:37.315Z,94163.00
2022-09-28T20:49:05.809Z,94159.03
2022-09-28T20:51:33.967Z,94160.91
2022-09-28T20:54:01.622Z,94166.44
2022-09-28T20:56:34.847Z,94167.16
2022-09-28T20:59:02.757Z,94164.91
2022-09-28T21:01:31.927Z,94165.84
2022-09-28T21:04:01.348Z,94167.78
2022-09-28T21:06:30.987Z,94163.94
2022-09-28T21:08:59.314Z,94161.38
2022-09-28T21:11:28.390Z,94158.66
2022-09-28T21:13:58.072Z,94158.81
2022-09-28T21:16:26.958Z,94160.50
2022-09-28T21:18:56.402Z,94162.00
2022-09-28T21:21:25.918Z,94161.28
2022-09-28T21:23:54.309Z,94162.47
2022-09-28T21:26:25.919Z,94169.09
2022-09-28T21:28:54.606Z,94169.66
2022-09-28T21:31:28.552Z,94157.13
2022-09-28T21:33:58.569Z,94158.47
2022-09-28T21:36:27.032Z,94157.59
2022-09-28T21:38:55.982Z,94151.50
2022-09-28T21:41:24.164Z,94151.06
2022-09-28T21:43:52.257Z,94147.00
2022-09-28T21:46:20.330Z,94138.50
2022-09-28T21:48:52.516Z,94136.47
2022-09-28T21:51:23.096Z,94143.72
2022-09-28T21:53:50.775Z,94134.88
2022-09-28T21:56:19.046Z,94147.00
2022-09-28T21:58:47.083Z,94147.16
2022-09-28T22:01:16.784Z,94156.63
2022-09-28T22:03:46.727Z,94148.50
2022-09-28T22:06:16.157Z,94149.16
2022-09-28T22:08:45.630Z,94150.09
2022-09-28T22:11:15.723Z,94157.81
2022-09-28T22:13:44.826Z,94163.09
2022-09-28T22:16:14.607Z,94162.31
2022-09-28T22:18:42.556Z,94167.38
2022-09-28T22:21:13.558Z,94163.13
2022-09-28T22:23:41.611Z,94165.53
2022-09-28T22:26:13.126Z,94161.09
2022-09-28T22:28:45.107Z,94166.56
2022-09-28T22:31:13.010Z,94158.72
2022-09-28T22:33:40.685Z,94166.09
2022-09-28T22:36:08.850Z,94153.53
2022-09-28T22:38:37.247Z,94155.97
2022-09-28T22:41:05.117Z,94157.19
2022-09-28T22:43:34.693Z,94154.13
2022-09-28T22:46:04.603Z,94147.47
2022-09-28T22:48:32.698Z,94149.91
2022-09-28T22:51:01.121Z,94143.00
2022-09-28T22:53:29.544Z,94146.59
2022-09-28T22:55:58.522Z,94145.81
2022-09-28T22:58:26.350Z,94143.34
2022-09-28T23:00:57.825Z,94143.94
2022-09-28T23:03:25.620Z,94145.53
2022-09-28T23:05:54.198Z,94149.41
2022-09-28T23:08:22.250Z,94147.38
2022-09-28T23:10:50.178Z,94156.72
2022-09-28T23:13:18.225Z,94155.56
2022-09-28T23:15:56.990Z,94165.13
2022-09-28T23:18:26.067Z,94158.47
2022-09-28T23:20:55.288Z,94164.16
2022-09-28T23:23:23.315Z,94157.69
2022-09-28T23:25:51.245Z,94164.22
2022-09-28T23:28:19.744Z,94145.97
2022-09-28T23:30:48.225Z,94140.13
2022-09-28T23:33:18.920Z,94144.00
2022-09-28T23:35:47.241Z,94156.94
2022-09-28T23:38:17.938Z,94143.19
2022-09-28T23:40:46.683Z,94142.75
2022-09-28T23:43:15.242Z,94142.31
2022-09-28T23:45:44.106Z,94146.38
2022-09-28T23:48:14.889Z,94142.50
2022-09-28T23:50:44.873Z,94142.28
2022-09-28T23:53:13.626Z,94133.00
2022-09-28T23:55:42.422Z,94136.66
2022-09-28T23:58:10.303Z,94133.84
